sensor_id;sensor_type;location;lat;lon;timestamp;pressure;altitude;pressure_sealevel;temperature;humidity
26697;BME280;14312;52.614;13.496;2023-03-14T00:00:11;98572.50;;;16.47;62.88
26697;BME280;14312;52.614;13.496;2023-03-14T00:02:58;98575.38;;;16.42;62.76
26697;BME280;14312;52.614;13.496;2023-03-14T00:05:44;98589.16;;;16.40;62.55
26697;BME280;14312;52.614;13.496;2023-03-14T00:08:30;98576.69;;;16.36;63.01
26697;BME280;14312;52.614;13.496;2023-03-14T00:11:18;98568.19;;;16.34;62.80
26697;BME280;14312;52.614;13.496;2023-03-14T00:14:04;98563.00;;;16.29;62.43
26697;BME280;14312;52.614;13.496;2023-03-14T00:16:50;98567.47;;;16.25;62.57
26697;BME280;14312;52.614;13.496;2023-03-14T00:19:36;98560.50;;;16.24;62.40
26697;BME280;14312;52.614;13.496;2023-03-14T00:22:22;98538.53;;;16.22;62.11
26697;BME280;14312;52.614;13.496;2023-03-14T00:25:10;98546.81;;;16.17;62.37
26697;BME280;14312;52.614;13.496;2023-03-14T00:27:56;98541.16;;;16.10;62.73
26697;BME280;14312;52.614;13.496;2023-03-14T00:30:42;98527.28;;;16.08;62.56
26697;BME280;14312;52.614;13.496;2023-03-14T00:33:28;98526.38;;;16.03;62.93
26697;BME280;14312;52.614;13.496;2023-03-14T00:36:16;98526.22;;;16.00;62.83
26697;BME280;14312;52.614;13.496;2023-03-14T00:39:02;98512.19;;;15.94;62.91
26697;BME280;14312;52.614;13.496;2023-03-14T00:41:48;98504.34;;;15.89;63.27
26697;BME280;14312;52.614;13.496;2023-03-14T00:44:34;98496.59;;;15.88;63.04
26697;BME280;14312;52.614;13.496;2023-03-14T00:47:20;98494.13;;;15.83;63.37
26697;BME280;14312;52.614;13.496;2023-03-14T00:50:07;98503.13;;;15.78;63.57
26697;BME280;14312;52.614;13.496;2023-03-14T00:52:53;98503.81;;;15.75;63.38
26697;BME280;14312;52.614;13.496;2023-03-14T00:55:40;98501.75;;;15.72;63.70
26697;BME280;14312;52.614;13.496;2023-03-14T00:58:28;98495.97;;;15.70;63.70
26697;BME280;14312;52.614;13.496;2023-03-14T01:01:17;98504.66;;;15.67;63.81
26697;BME280;14312;52.614;13.496;2023-03-14T01:04:03;98489.84;;;15.61;63.95
26697;BME280;14312;52.614;13.496;2023-03-14T01:06:49;98474.84;;;15.60;64.01
26697;BME280;14312;52.614;13.496;2023-03-14T01:09:35;98477.72;;;15.55;64.39
26697;BME280;14312;52.614;13.496;2023-03-14T01:12:21;98462.22;;;15.52;64.58
26697;BME280;14312;52.614;13.496;2023-03-14T01:15:08;98457.50;;;15.49;64.62
26697;BME280;14312;52.614;13.496;2023-03-14T01:17:54;98477.59;;;15.43;64.87
26697;BME280;14312;52.614;13.496;2023-03-14T01:20:40;98494.78;;;15.42;64.80
26697;BME280;14312;52.614;13.496;2023-03-14T01:23:26;98484.56;;;15.35;65.05
26697;BME280;14312;52.614;13.496;2023-03-14T01:26:14;98499.59;;;15.27;65.49
26697;BME280;14312;52.614;13.496;2023-03-14T01:29:00;98525.81;;;15.31;65.39
26697;BME280;14312;52.614;13.496;2023-03-14T01:31:47;98535.16;;;15.24;65.59
26697;BME280;14312;52.614;13.496;2023-03-14T01:34:32;98529.31;;;15.22;65.82
26697;BME280;14312;52.614;13.496;2023-03-14T01:37:18;98545.41;;;15.22;65.71
26697;BME280;14312;52.614;13.496;2023-03-14T01:40:05;98539.13;;;15.18;65.85
26697;BME280;14312;52.614;13.496;2023-03-14T01:43:04;98542.91;;;15.17;65.99
26697;BME280;14312;52.614;13.496;2023-03-14T01:52:07;98561.22;;;15.15;66.08
26697;BME280;14312;52.614;13.496;2023-03-14T01:55:01;98557.28;;;15.13;66.39
26697;BME280;14312;52.614;13.496;2023-03-14T01:58:02;98565.00;;;15.14;66.48
26697;BME280;14312;52.614;13.496;2023-03-14T02:00:49;98560.44;;;15.15;66.53
26697;BME280;14312;52.614;13.496;2023-03-14T02:03:39;98549.84;;;15.18;66.17
26697;BME280;14312;52.614;13.496;2023-03-14T02:06:41;98539.91;;;15.19;66.39
26697;BME280;14312;52.614;13.496;2023-03-14T02:09:30;98530.28;;;15.18;66.39
26697;BME280;14312;52.614;13.496;2023-03-14T02:12:17;98524.91;;;15.18;66.31
26697;BME280;14312;52.614;13.496;2023-03-14T02:15:04;98532.19;;;15.17;66.54
26697;BME280;14312;52.614;13.496;2023-03-14T02:17:51;98529.03;;;15.15;66.35
26697;BME280;14312;52.614;13.496;2023-03-14T02:21:07;98521.75;;;15.16;66.22
26697;BME280;14312;52.614;13.496;2023-03-14T02:24:13;98522.06;;;15.14;66.29
26697;BME280;14312;52.614;13.496;2023-03-14T02:29:54;98508.66;;;15.14;66.29
26697;BME280;14312;52.614;13.496;2023-03-14T02:32:47;98504.41;;;15.13;66.41
26697;BME280;14312;52.614;13.496;2023-03-14T02:35:59;98499.03;;;15.13;66.49
26697;BME280;14312;52.614;13.496;2023-03-14T02:39:14;98506.63;;;15.11;66.31
26697;BME280;14312;52.614;13.496;2023-03-14T02:42:02;98490.53;;;15.11;66.36
26697;BME280;14312;52.614;13.496;2023-03-14T02:47:57;98485.63;;;15.13;66.07
26697;BME280;14312;52.614;13.496;2023-03-14T02:50:47;98493.22;;;15.11;66.44
26697;BME280;14312;52.614;13.496;2023-03-14T02:53:36;98479.03;;;15.11;66.55
26697;BME280;14312;52.614;13.496;2023-03-14T02:56:23;98476.34;;;15.11;66.35
26697;BME280;14312;52.614;13.496;2023-03-14T02:59:09;98470.66;;;15.12;66.23
26697;BME280;14312;52.614;13.496;2023-03-14T03:01:55;98464.50;;;15.12;66.39
26697;BME280;14312;52.614;13.496;2023-03-14T03:04:41;98450.31;;;15.11;66.14
26697;BME280;14312;52.614;13.496;2023-03-14T03:07:27;98442.88;;;15.08;66.29
26697;BME280;14312;52.614;13.496;2023-03-14T03:10:12;98435.31;;;15.10;66.10
26697;BME280;14312;52.614;13.496;2023-03-14T03:12:58;98432.16;;;15.08;65.88
26697;BME280;14312;52.614;13.496;2023-03-14T03:15:44;98423.63;;;15.06;65.93
26697;BME280;14312;52.614;13.496;2023-03-14T03:18:30;98416.25;;;15.03;65.93
26697;BME280;14312;52.614;13.496;2023-03-14T03:21:16;98405.06;;;15.01;65.79
26697;BME280;14312;52.614;13.496;2023-03-14T03:24:03;98397.78;;;15.02;65.62
26697;BME280;14312;52.614;13.496;2023-03-14T03:26:49;98411.09;;;14.98;65.87
26697;BME280;14312;52.614;13.496;2023-03-14T03:29:35;98408.25;;;14.95;65.90
26697;BME280;14312;52.614;13.496;2023-03-14T03:32:21;98414.91;;;14.88;66.54
26697;BME280;14312;52.614;13.496;2023-03-14T03:35:07;98415.22;;;14.87;66.19
26697;BME280;14312;52.614;13.496;2023-03-14T03:37:54;98432.75;;;14.84;66.20
26697;BME280;14312;52.614;13.496;2023-03-14T03:40:40;98425.94;;;14.87;66.02
26697;BME280;14312;52.614;13.496;2023-03-14T03:43:26;98433.53;;;14.85;66.06
26697;BME280;14312;52.614;13.496;2023-03-14T03:46:12;98428.94;;;14.85;66.16
26697;BME280;14312;52.614;13.496;2023-03-14T03:48:59;98424.72;;;14.84;66.07
26697;BME280;14312;52.614;13.496;2023-03-14T03:51:45;98437.34;;;14.84;66.11
26697;BME280;14312;52.614;13.496;2023-03-14T03:54:31;98423.13;;;14.83;65.97
26697;BME280;14312;52.614;13.496;2023-03-14T03:57:17;98426.94;;;14.82;66.21
26697;BME280;14312;52.614;13.496;2023-03-14T04:00:04;98415.25;;;14.78;65.98
26697;BME280;14312;52.614;13.496;2023-03-14T04:02:51;98411.03;;;14.77;66.18
26697;BME280;14312;52.614;13.496;2023-03-14T04:05:37;98421.41;;;14.79;66.12
26697;BME280;14312;52.614;13.496;2023-03-14T04:08:23;98417.16;;;14.78;66.23
26697;BME280;14312;52.614;13.496;2023-03-14T04:11:09;98446.19;;;14.76;66.07
26697;BME280;14312;52.614;13.496;2023-03-14T04:13:56;98433.88;;;14.75;66.15
26697;BME280;14312;52.614;13.496;2023-03-14T04:16:42;98400.94;;;14.74;66.28
26697;BME280;14312;52.614;13.496;2023-03-14T04:19:27;98420.00;;;14.73;66.20
26697;BME280;14312;52.614;13.496;2023-03-14T04:22:13;98420.66;;;14.70;66.24
26697;BME280;14312;52.614;13.496;2023-03-14T04:24:59;98416.84;;;14.71;66.07
26697;BME280;14312;52.614;13.496;2023-03-14T04:27:47;98406.13;;;14.71;66.02
26697;BME280;14312;52.614;13.496;2023-03-14T04:30:34;98413.72;;;14.69;66.15
26697;BME280;14312;52.614;13.496;2023-03-14T04:33:20;98410.56;;;14.67;66.39
26697;BME280;14312;52.614;13.496;2023-03-14T04:36:07;98413.25;;;14.67;66.34
26697;BME280;14312;52.614;13.496;2023-03-14T04:38:53;98392.28;;;14.69;65.92
26697;BME280;14312;52.614;13.496;2023-03-14T04:41:39;98392.91;;;14.66;66.33
26697;BME280;14312;52.614;13.496;2023-03-14T04:44:25;98372.56;;;14.65;66.03
26697;BME280;14312;52.614;13.496;2023-03-14T04:47:11;98375.25;;;14.65;65.75
26697;BME280;14312;52.614;13.496;2023-03-14T04:49:57;98375.25;;;14.65;65.63
26697;BME280;14312;52.614;13.496;2023-03-14T04:52:42;98377.50;;;14.63;65.80
26697;BME280;14312;52.614;13.496;2023-03-14T04:55:29;98369.75;;;14.61;65.91
26697;BME280;14312;52.614;13.496;2023-03-14T04:58:15;98358.25;;;14.61;65.90
26697;BME280;14312;52.614;13.496;2023-03-14T05:01:04;98351.78;;;14.62;65.51
26697;BME280;14312;52.614;13.496;2023-03-14T05:03:50;98356.06;;;14.63;65.45
26697;BME280;14312;52.614;13.496;2023-03-14T05:06:36;98372.75;;;14.60;65.73
26697;BME280;14312;52.614;13.496;2023-03-14T05:09:22;98376.06;;;14.57;65.77
26697;BME280;14312;52.614;13.496;2023-03-14T05:12:08;98364.25;;;14.58;65.68
26697;BME280;14312;52.614;13.496;2023-03-14T05:14:54;98361.13;;;14.56;65.84
26697;BME280;14312;52.614;13.496;2023-03-14T05:17:40;98362.22;;;14.55;65.80
26697;BME280;14312;52.614;13.496;2023-03-14T05:20:26;98351.94;;;14.57;65.48
26697;BME280;14312;52.614;13.496;2023-03-14T05:23:12;98342.69;;;14.54;65.63
26697;BME280;14312;52.614;13.496;2023-03-14T05:25:58;98357.50;;;14.52;65.72
26697;BME280;14312;52.614;13.496;2023-03-14T05:28:44;98327.38;;;14.55;65.57
26697;BME280;14312;52.614;13.496;2023-03-14T05:31:30;98336.53;;;14.54;65.36
26697;BME280;14312;52.614;13.496;2023-03-14T05:34:16;98330.38;;;14.53;65.52
26697;BME280;14312;52.614;13.496;2023-03-14T05:37:02;98340.94;;;14.49;65.61
26697;BME280;14312;52.614;13.496;2023-03-14T05:39:48;98332.59;;;14.51;65.45
26697;BME280;14312;52.614;13.496;2023-03-14T05:42:34;98341.72;;;14.50;65.73
26697;BME280;14312;52.614;13.496;2023-03-14T05:45:20;98335.28;;;14.51;65.47
26697;BME280;14312;52.614;13.496;2023-03-14T05:48:06;98332.59;;;14.51;65.32
26697;BME280;14312;52.614;13.496;2023-03-14T05:50:56;98342.53;;;14.50;65.44
26697;BME280;14312;52.614;13.496;2023-03-14T05:53:42;98345.53;;;14.49;65.47
26697;BME280;14312;52.614;13.496;2023-03-14T05:56:28;98342.53;;;14.50;65.67
26697;BME280;14312;52.614;13.496;2023-03-14T05:59:14;98345.53;;;14.49;65.27
26697;BME280;14312;52.614;13.496;2023-03-14T06:02:00;98344.75;;;14.48;65.63
26697;BME280;14312;52.614;13.496;2023-03-14T06:04:46;98338.59;;;14.48;65.68
26697;BME280;14312;52.614;13.496;2023-03-14T06:07:32;98349.47;;;14.52;65.48
26697;BME280;14312;52.614;13.496;2023-03-14T06:10:18;98332.59;;;14.51;65.38
26697;BME280;14312;52.614;13.496;2023-03-14T06:13:04;98339.53;;;14.52;65.24
26697;BME280;14312;52.614;13.496;2023-03-14T06:15:50;98344.56;;;14.54;65.20
26697;BME280;14312;52.614;13.496;2023-03-14T06:18:36;98334.31;;;14.56;65.08
26697;BME280;14312;52.614;13.496;2023-03-14T06:21:22;98337.00;;;14.56;65.23
26697;BME280;14312;52.614;13.496;2023-03-14T06:24:08;98323.59;;;14.56;65.04
26697;BME280;14312;52.614;13.496;2023-03-14T06:26:53;98339.81;;;14.59;64.80
26697;BME280;14312;52.614;13.496;2023-03-14T06:29:39;98332.25;;;14.61;64.99
26697;BME280;14312;52.614;13.496;2023-03-14T06:32:25;98350.69;;;14.63;64.57
26697;BME280;14312;52.614;13.496;2023-03-14T06:35:11;98335.53;;;14.67;64.18
26697;BME280;14312;52.614;13.496;2023-03-14T06:37:57;98341.34;;;14.69;63.88
26697;BME280;14312;52.614;13.496;2023-03-14T06:40:43;98357.88;;;14.71;63.52
26697;BME280;14312;52.614;13.496;2023-03-14T06:43:29;98350.31;;;14.73;63.87
26697;BME280;14312;52.614;13.496;2023-03-14T06:46:15;98337.84;;;14.77;63.26
26697;BME280;14312;52.614;13.496;2023-03-14T06:49:01;98362.41;;;14.79;63.07
26697;BME280;14312;52.614;13.496;2023-03-14T06:51:47;98358.63;;;14.80;63.48
26697;BME280;14312;52.614;13.496;2023-03-14T06:54:33;98364.47;;;14.82;63.46
26697;BME280;14312;52.614;13.496;2023-03-14T06:57:18;98366.16;;;14.86;62.90
26697;BME280;14312;52.614;13.496;2023-03-14T07:00:05;98375.47;;;14.89;62.63
26697;BME280;14312;52.614;13.496;2023-03-14T07:02:51;98367.91;;;14.91;62.79
26697;BME280;14312;52.614;13.496;2023-03-14T07:05:37;98382.69;;;14.97;63.10
26697;BME280;14312;52.614;13.496;2023-03-14T07:08:26;98378.25;;;15.01;62.70
26697;BME280;14312;52.614;13.496;2023-03-14T07:11:12;98385.91;;;15.11;61.55
26697;BME280;14312;52.614;13.496;2023-03-14T07:13:58;98379.56;;;15.16;61.94
26697;BME280;14312;52.614;13.496;2023-03-14T07:16:44;98391.69;;;15.22;61.78
26697;BME280;14312;52.614;13.496;2023-03-14T07:19:30;98392.94;;;15.24;61.89
26697;BME280;14312;52.614;13.496;2023-03-14T07:22:16;98403.00;;;15.27;61.70
26697;BME280;14312;52.614;13.496;2023-03-14T07:25:02;98386.25;;;15.31;61.22
26697;BME280;14312;52.614;13.496;2023-03-14T07:27:49;98395.09;;;15.31;61.05
26697;BME280;14312;52.614;13.496;2023-03-14T07:30:34;98401.25;;;15.32;61.60
26697;BME280;14312;52.614;13.496;2023-03-14T07:33:21;98412.00;;;15.32;61.52
26697;BME280;14312;52.614;13.496;2023-03-14T07:36:07;98404.41;;;15.34;60.98
26697;BME280;14312;52.614;13.496;2023-03-14T07:38:53;98400.41;;;15.40;60.53
26697;BME280;14312;52.614;13.496;2023-03-14T07:41:39;98408.47;;;15.40;61.01
26697;BME280;14312;52.614;13.496;2023-03-14T07:44:25;98410.50;;;15.43;60.99
26697;BME280;14312;52.614;13.496;2023-03-14T07:47:11;98416.66;;;15.43;60.97
26697;BME280;14312;52.614;13.496;2023-03-14T07:49:57;98415.84;;;15.43;61.08
26697;BME280;14312;52.614;13.496;2023-03-14T07:52:43;98417.44;;;15.44;61.67
26697;BME280;14312;52.614;13.496;2023-03-14T07:55:29;98407.63;;;15.48;60.25
26697;BME280;14312;52.614;13.496;2023-03-14T07:58:15;98422.16;;;15.47;60.55
26697;BME280;14312;52.614;13.496;2023-03-14T08:01:02;98414.53;;;15.49;60.15
26697;BME280;14312;52.614;13.496;2023-03-14T08:03:49;98397.69;;;15.48;61.11
26697;BME280;14312;52.614;13.496;2023-03-14T08:06:36;98410.75;;;15.50;61.22
26697;BME280;14312;52.614;13.496;2023-03-14T08:09:22;98388.03;;;15.56;61.57
26697;BME280;14312;52.614;13.496;2023-03-14T08:12:08;98396.34;;;15.63;61.24
26697;BME280;14312;52.614;13.496;2023-03-14T08:14:54;98386.75;;;15.74;61.07
26697;BME280;14312;52.614;13.496;2023-03-14T08:17:40;98370.69;;;15.86;60.75
26697;BME280;14312;52.614;13.496;2023-03-14T08:20:28;98386.41;;;15.96;60.69
26697;BME280;14312;52.614;13.496;2023-03-14T08:23:14;98396.72;;;16.06;60.63
26697;BME280;14312;52.614;13.496;2023-03-14T08:26:00;98381.78;;;16.18;60.81
26697;BME280;14312;52.614;13.496;2023-03-14T08:28:48;98397.47;;;16.28;60.44
26697;BME280;14312;52.614;13.496;2023-03-14T08:31:35;98387.19;;;16.42;59.22
26697;BME280;14312;52.614;13.496;2023-03-14T08:34:21;98390.13;;;16.49;58.92
26697;BME280;14312;52.614;13.496;2023-03-14T08:37:07;98390.59;;;16.51;58.60
26697;BME280;14312;52.614;13.496;2023-03-14T08:39:54;98391.38;;;16.52;58.18
26697;BME280;14312;52.614;13.496;2023-03-14T08:42:41;98408.94;;;16.49;58.61
26697;BME280;14312;52.614;13.496;2023-03-14T08:45:27;98388.44;;;16.44;58.83
26697;BME280;14312;52.614;13.496;2023-03-14T08:48:13;98411.38;;;16.42;58.61
26697;BME280;14312;52.614;13.496;2023-03-14T08:51:07;98413.19;;;16.38;58.75
26697;BME280;14312;52.614;13.496;2023-03-14T08:53:54;98426.84;;;16.33;58.77
26697;BME280;14312;52.614;13.496;2023-03-14T08:56:40;98412.81;;;16.27;58.72
26697;BME280;14312;52.614;13.496;2023-03-14T08:59:27;98426.78;;;16.21;59.08
26697;BME280;14312;52.614;13.496;2023-03-14T09:02:12;98428.56;;;16.17;59.23
26697;BME280;14312;52.614;13.496;2023-03-14T09:04:58;98416.94;;;16.13;58.99
26697;BME280;14312;52.614;13.496;2023-03-14T09:07:44;98414.56;;;16.11;58.53
26697;BME280;14312;52.614;13.496;2023-03-14T09:10:30;98422.06;;;16.05;59.23
26697;BME280;14312;52.614;13.496;2023-03-14T09:13:16;98418.44;;;16.01;59.68
26697;BME280;14312;52.614;13.496;2023-03-14T09:16:03;98413.38;;;16.00;60.27
26697;BME280;14312;52.614;13.496;2023-03-14T09:18:49;98402.31;;;16.01;60.41
26697;BME280;14312;52.614;13.496;2023-03-14T09:21:35;98399.78;;;16.05;60.32
26697;BME280;14312;52.614;13.496;2023-03-14T09:24:21;98388.59;;;16.15;59.83
26697;BME280;14312;52.614;13.496;2023-03-14T09:27:08;98373.97;;;16.25;59.63
26697;BME280;14312;52.614;13.496;2023-03-14T09:29:54;98384.06;;;16.40;59.34
26697;BME280;14312;52.614;13.496;2023-03-14T09:32:40;98380.06;;;16.58;60.57
26697;BME280;14312;52.614;13.496;2023-03-14T09:35:26;98384.38;;;16.83;60.91
26697;BME280;14312;52.614;13.496;2023-03-14T09:38:12;98376.50;;;17.15;60.44
26697;BME280;14312;52.614;13.496;2023-03-14T09:41:00;98377.00;;;17.45;60.46
26697;BME280;14312;52.614;13.496;2023-03-14T09:43:47;98377.53;;;17.75;60.39
26697;BME280;14312;52.614;13.496;2023-03-14T09:46:38;98355.34;;;18.09;58.02
26697;BME280;14312;52.614;13.496;2023-03-14T09:49:29;98363.75;;;18.35;56.83
26697;BME280;14312;52.614;13.496;2023-03-14T09:52:30;98372.63;;;18.52;53.17
26697;BME280;14312;52.614;13.496;2023-03-14T09:55:19;98367.91;;;18.49;52.78
26697;BME280;14312;52.614;13.496;2023-03-14T09:58:16;98381.22;;;18.42;52.43
26697;BME280;14312;52.614;13.496;2023-03-14T10:01:04;98389.66;;;18.24;52.77
26697;BME280;14312;52.614;13.496;2023-03-14T10:03:50;98380.06;;;18.11;51.27
26697;BME280;14312;52.614;13.496;2023-03-14T10:06:39;98384.19;;;17.93;52.26
26697;BME280;14312;52.614;13.496;2023-03-14T10:09:25;98383.09;;;17.82;52.06
26697;BME280;14312;52.614;13.496;2023-03-14T10:12:11;98394.16;;;17.65;52.49
26697;BME280;14312;52.614;13.496;2023-03-14T10:15:05;98381.03;;;17.51;52.74
26697;BME280;14312;52.614;13.496;2023-03-14T10:17:52;98396.00;;;17.36;53.19
26697;BME280;14312;52.614;13.496;2023-03-14T10:20:40;98391.50;;;17.28;54.06
26697;BME280;14312;52.614;13.496;2023-03-14T10:23:28;98394.44;;;17.23;54.00
26697;BME280;14312;52.614;13.496;2023-03-14T10:26:18;98386.59;;;17.18;54.50
26697;BME280;14312;52.614;13.496;2023-03-14T10:29:12;98395.00;;;17.16;54.38
26697;BME280;14312;52.614;13.496;2023-03-14T10:32:04;98389.50;;;17.13;53.80
26697;BME280;14312;52.614;13.496;2023-03-14T10:35:07;98424.72;;;17.08;54.78
26697;BME280;14312;52.614;13.496;2023-03-14T10:38:00;98391.66;;;17.07;53.88
26697;BME280;14312;52.614;13.496;2023-03-14T10:40:48;98390.44;;;17.05;53.90
26697;BME280;14312;52.614;13.496;2023-03-14T10:43:35;98383.81;;;17.02;53.88
26697;BME280;14312;52.614;13.496;2023-03-14T10:46:23;98408.34;;;17.01;53.24
26697;BME280;14312;52.614;13.496;2023-03-14T10:49:25;98390.63;;;17.00;53.47
26697;BME280;14312;52.614;13.496;2023-03-14T10:52:26;98399.72;;;16.95;53.36
26697;BME280;14312;52.614;13.496;2023-03-14T10:55:12;98392.00;;;16.94;53.27
26697;BME280;14312;52.614;13.496;2023-03-14T10:57:58;98401.06;;;16.89;53.56
26697;BME280;14312;52.614;13.496;2023-03-14T11:00:54;98402.53;;;16.87;53.33
26697;BME280;14312;52.614;13.496;2023-03-14T11:03:47;98413.28;;;16.87;53.55
26697;BME280;14312;52.614;13.496;2023-03-14T11:06:48;98413.28;;;16.87;53.94
26697;BME280;14312;52.614;13.496;2023-03-14T11:15:57;98387.50;;;16.86;53.37
26697;BME280;14312;52.614;13.496;2023-03-14T11:18:57;98381.00;;;16.87;53.96
26697;BME280;14312;52.614;13.496;2023-03-14T11:31:03;98390.19;;;16.86;53.92
26697;BME280;14312;52.614;13.496;2023-03-14T11:34:00;98389.06;;;16.87;53.21
26697;BME280;14312;52.614;13.496;2023-03-14T11:37:07;98390.97;;;16.86;53.75
26697;BME280;14312;52.614;13.496;2023-03-14T11:45:51;98376.53;;;16.91;52.80
26697;BME280;14312;52.614;13.496;2023-03-14T11:48:59;98384.25;;;16.92;53.17
26697;BME280;14312;52.614;13.496;2023-03-14T11:51:51;98371.59;;;16.93;53.01
26697;BME280;14312;52.614;13.496;2023-03-14T11:54:39;98369.00;;;16.96;52.54
26697;BME280;14312;52.614;13.496;2023-03-14T11:57:28;98359.03;;;16.97;52.47
26697;BME280;14312;52.614;13.496;2023-03-14T12:00:20;98378.53;;;16.94;52.86
26697;BME280;14312;52.614;13.496;2023-03-14T12:03:13;98373.38;;;16.89;53.63
26697;BME280;14312;52.614;13.496;2023-03-14T12:06:28;98387.31;;;16.91;54.00
26697;BME280;14312;52.614;13.496;2023-03-14T12:09:18;98367.88;;;16.85;53.98
26697;BME280;14312;52.614;13.496;2023-03-14T12:12:06;98371.03;;;16.87;54.55
26697;BME280;14312;52.614;13.496;2023-03-14T12:14:59;98371.34;;;16.86;54.18
26697;BME280;14312;52.614;13.496;2023-03-14T12:17:46;98364.41;;;16.84;54.29
26697;BME280;14312;52.614;13.496;2023-03-14T12:20:38;98370.81;;;16.80;55.12
26697;BME280;14312;52.614;13.496;2023-03-14T12:23:26;98356.81;;;16.74;55.77
26697;BME280;14312;52.614;13.496;2023-03-14T12:34:46;98368.50;;;16.58;55.90
26697;BME280;14312;52.614;13.496;2023-03-14T12:37:52;98367.31;;;16.55;56.73
26697;BME280;14312;52.614;13.496;2023-03-14T12:41:04;98367.41;;;16.59;56.19
26697;BME280;14312;52.614;13.496;2023-03-14T12:43:52;98355.66;;;16.63;56.42
26697;BME280;14312;52.614;13.496;2023-03-14T12:46:38;98347.16;;;16.73;56.71
26697;BME280;14312;52.614;13.496;2023-03-14T12:49:31;98344.78;;;16.84;56.68
26697;BME280;14312;52.614;13.496;2023-03-14T12:52:29;98342.91;;;16.97;55.94
26697;BME280;14312;52.614;13.496;2023-03-14T12:55:22;98350.72;;;17.02;55.54
26697;BME280;14312;52.614;13.496;2023-03-14T12:58:32;98349.81;;;17.10;55.05
26697;BME280;14312;52.614;13.496;2023-03-14T13:01:20;98342.00;;;17.05;55.00
26697;BME280;14312;52.614;13.496;2023-03-14T13:04:11;98337.28;;;17.02;55.13
26697;BME280;14312;52.614;13.496;2023-03-14T13:06:58;98344.91;;;17.00;55.72
26697;BME280;14312;52.614;13.496;2023-03-14T13:09:55;98364.75;;;16.95;56.09
26697;BME280;14312;52.614;13.496;2023-03-14T13:13:01;98349.84;;;16.86;56.33
26697;BME280;14312;52.614;13.496;2023-03-14T13:15:54;98352.09;;;16.83;56.56
26697;BME280;14312;52.614;13.496;2023-03-14T13:18:45;98348.97;;;16.81;57.00
26697;BME280;14312;52.614;13.496;2023-03-14T13:21:35;98349.28;;;16.80;57.02
26697;BME280;14312;52.614;13.496;2023-03-14T13:24:26;98343.34;;;16.87;57.47
26697;BME280;14312;52.614;13.496;2023-03-14T13:27:19;98346.91;;;17.03;56.64
26697;BME280;14312;52.614;13.496;2023-03-14T13:30:19;98334.81;;;17.09;57.12
26697;BME280;14312;52.614;13.496;2023-03-14T13:33:06;98319.81;;;17.36;56.65
26697;BME280;14312;52.614;13.496;2023-03-14T13:36:01;98323.88;;;17.70;56.83
26697;BME280;14312;52.614;13.496;2023-03-14T13:38:59;98312.50;;;18.20;54.88
26697;BME280;14312;52.614;13.496;2023-03-14T13:41:47;98316.78;;;18.68;52.57
26697;BME280;14312;52.614;13.496;2023-03-14T13:44:36;98306.44;;;19.05;51.83
26697;BME280;14312;52.614;13.496;2023-03-14T13:47:25;98309.81;;;19.37;51.26
26697;BME280;14312;52.614;13.496;2023-03-14T13:50:18;98303.44;;;19.64;51.71
26697;BME280;14312;52.614;13.496;2023-03-14T13:53:04;98306.25;;;19.90;50.85
26697;BME280;14312;52.614;13.496;2023-03-14T13:55:51;98307.28;;;20.05;50.02
26697;BME280;14312;52.614;13.496;2023-03-14T13:58:47;98301.22;;;20.12;50.62
26697;BME280;14312;52.614;13.496;2023-03-14T14:01:35;98295.34;;;20.29;50.95
26697;BME280;14312;52.614;13.496;2023-03-14T14:04:24;98292.38;;;20.60;50.42
26697;BME280;14312;52.614;13.496;2023-03-14T14:07:17;98298.13;;;20.82;49.18
26697;BME280;14312;52.614;13.496;2023-03-14T14:10:04;98286.25;;;20.90;48.79
26697;BME280;14312;52.614;13.496;2023-03-14T14:12:59;98283.97;;;20.92;48.29
26697;BME280;14312;52.614;13.496;2023-03-14T14:15:49;98283.34;;;21.02;48.26
26697;BME280;14312;52.614;13.496;2023-03-14T14:18:37;98275.75;;;21.15;48.57
26697;BME280;14312;52.614;13.496;2023-03-14T14:21:24;98269.13;;;21.38;47.70
26697;BME280;14312;52.614;13.496;2023-03-14T14:24:14;98270.91;;;21.61;46.56
26697;BME280;14312;52.614;13.496;2023-03-14T14:27:08;98280.38;;;21.74;46.44
26697;BME280;14312;52.614;13.496;2023-03-14T14:30:03;98270.16;;;21.64;44.74
26697;BME280;14312;52.614;13.496;2023-03-14T14:32:50;98272.91;;;21.30;45.47
26697;BME280;14312;52.614;13.496;2023-03-14T14:35:36;98264.53;;;20.86;45.81
26697;BME280;14312;52.614;13.496;2023-03-14T14:38:23;98280.09;;;20.40;46.58
26697;BME280;14312;52.614;13.496;2023-03-14T14:41:11;98282.44;;;19.96;47.50
26697;BME280;14312;52.614;13.496;2023-03-14T14:43:58;98289.34;;;19.55;48.40
26697;BME280;14312;52.614;13.496;2023-03-14T14:46:45;98287.91;;;19.23;49.19
26697;BME280;14312;52.614;13.496;2023-03-14T14:49:32;98279.56;;;18.93;49.72
26697;BME280;14312;52.614;13.496;2023-03-14T14:52:34;98291.47;;;18.57;50.78
26697;BME280;14312;52.614;13.496;2023-03-14T14:55:22;98286.50;;;18.27;52.62
26697;BME280;14312;52.614;13.496;2023-03-14T14:58:23;98278.81;;;17.98;53.92
26697;BME280;14312;52.614;13.496;2023-03-14T15:01:22;98290.00;;;17.69;54.70
26697;BME280;14312;52.614;13.496;2023-03-14T15:04:13;98280.41;;;17.43;55.45
26697;BME280;14312;52.614;13.496;2023-03-14T15:07:00;98292.03;;;17.19;55.80
26697;BME280;14312;52.614;13.496;2023-03-14T15:09:46;98325.28;;;16.99;56.29
26697;BME280;14312;52.614;13.496;2023-03-14T15:12:32;98323.84;;;16.77;56.25
26697;BME280;14312;52.614;13.496;2023-03-14T15:15:18;98304.53;;;16.51;56.33
26697;BME280;14312;52.614;13.496;2023-03-14T15:18:14;98317.75;;;16.20;57.57
26697;BME280;14312;52.614;13.496;2023-03-14T15:21:00;98413.50;;;15.91;57.68
26697;BME280;14312;52.614;13.496;2023-03-14T15:23:46;98390.50;;;15.61;57.38